Detall de PIREP

Printer-friendly versionPDF version

[2017/08/20 07:13:00]
Flight IATA:CT2108
Pilot Number:041
Company ICAO:CAT
Aircraft Type:B463/A
PAX:100
Aircraft Registration:PAX
Departing Airport: LEVC
Destination Airport: LEMG
Alternate Airport:LEMD
Online: VATSIM
Route:ASTRO UM985 VIBAS


Flight Level:FL310
No Slew and time accel
No pause
Crash detect
Detect pilot in Cockpit between each 30 and 45 minutes
07:13 Zero fuel Weight: 81536 Lbs, Fuel Weight: 8238 Lbs
07:13 Take-off
07:13 Take off Weight: 89774 Lbs
07:13 Wind: 240º @ 001 Knots Heading: 151º
07:13 POS N36º 48´ 40´´ W004º 07´ 58´´
07:13 Gear Up: 245 Knots
07:13 TOC
07:13 Fuel Weight: 8239 Lb
07:13 TOD
07:13 Fuel Weight: 8233 Lb
07:17 Flaps:1 at 203 Knots
07:22 Flaps:2 at 165 Knots
07:23 Gear Down: 156 Knots
07:23 Flaps:3 at 159 Knots
07:23 Flaps:4 at 146 Knots
07:26 TouchDown:Rate -223 ft/min Speed: 125 Knots
07:26 Flaps:0 at 113 Knots
07:26VATSIM:LEMG 200700Z 00000KT 7000 FEW014 BKN020 25/21 Q1018 NOSIG
07:26 Land
07:26 Wind:064º@011 Knots
07:26 Heading: 312º
07:26 Flight Duration: 00:13
07:26 Landing Weight: 89156 Lbs
07:26 POS N36º 40´ 36´´ W004º 30´ 06´´
07:29 Parking brakes on
07:29 Block to Block Duration: 00:16
07:29 Final Fuel: 7493 Lbls
07:29 Spent Fuel: 745 Lbls
07:29 Flight Length: 42 NM
07:29 TOD Land Length: 42 NM

Exportar CSV

Powered by Drupal - Modified by Danger4k